createdAt,value
2023-01-12T00:02:17.797Z,60.27
2023-01-12T00:05:03.835Z,60.67
2023-01-12T00:07:49.726Z,60.36
2023-01-12T00:10:35.455Z,60.49
2023-01-12T00:13:21.021Z,60.31
2023-01-12T00:16:26.260Z,60.44
2023-01-12T00:19:17.080Z,60.38
2023-01-12T00:22:07.168Z,60.24
2023-01-12T00:24:55.104Z,60.65
2023-01-12T00:27:40.638Z,60.34
2023-01-12T00:30:26.398Z,60.86
2023-01-12T00:33:12.031Z,60.38
2023-01-12T00:35:57.593Z,60.56
2023-01-12T00:38:43.489Z,60.46
2023-01-12T00:41:47.697Z,60.59
2023-01-12T00:44:53.184Z,60.80
2023-01-12T00:47:39.252Z,60.61
2023-01-12T00:50:25.056Z,60.61
2023-01-12T00:53:10.763Z,60.45
2023-01-12T00:56:01.578Z,60.73
2023-01-12T00:58:47.371Z,60.80
2023-01-12T01:01:34.645Z,60.82
2023-01-12T01:04:20.530Z,60.65
2023-01-12T01:07:06.472Z,60.32
2023-01-12T01:09:52.112Z,60.33
2023-01-12T01:12:37.867Z,60.47
2023-01-12T01:15:23.476Z,60.48
2023-01-12T01:18:09.016Z,60.45
2023-01-12T01:20:55.119Z,60.69
2023-01-12T01:23:41.797Z,60.63
2023-01-12T01:26:27.776Z,60.70
2023-01-12T01:29:13.967Z,60.61
2023-01-12T01:31:59.578Z,60.76
2023-01-12T01:34:46.538Z,60.94
2023-01-12T01:37:32.419Z,60.78
2023-01-12T01:40:18.117Z,60.94
2023-01-12T01:43:04.119Z,60.94
2023-01-12T01:46:05.675Z,60.98
2023-01-12T01:48:51.619Z,60.88
2023-01-12T01:51:37.359Z,60.89
2023-01-12T01:54:23.659Z,60.28
2023-01-12T01:57:11.026Z,60.42
2023-01-12T01:59:59.940Z,60.54
2023-01-12T02:02:46.745Z,60.52
2023-01-12T02:05:32.993Z,60.87
2023-01-12T02:08:39.576Z,60.94
2023-01-12T02:11:44.236Z,60.70
2023-01-12T02:14:49.484Z,60.63
2023-01-12T02:17:55.432Z,61.01
2023-01-12T02:20:56.481Z,61.10
2023-01-12T02:23:48.601Z,61.11
2023-01-12T02:27:03.830Z,61.11
2023-01-12T02:30:21.517Z,61.17
2023-01-12T02:33:16.930Z,61.38
2023-01-12T02:36:11.840Z,61.30
2023-01-12T02:39:07.579Z,61.05
2023-01-12T02:42:42.761Z,61.23
2023-01-12T02:45:57.395Z,61.45
2023-01-12T02:48:55.834Z,61.35
2023-01-12T02:51:48.211Z,61.13
2023-01-12T02:54:34.671Z,61.31
2023-01-12T02:57:22.113Z,61.47
2023-01-12T03:00:09.147Z,61.12
2023-01-12T03:02:54.878Z,61.47
2023-01-12T03:05:45.207Z,60.81
2023-01-12T03:08:32.373Z,61.27
2023-01-12T03:11:20.679Z,61.01
2023-01-12T03:14:07.076Z,60.90
2023-01-12T03:16:54.714Z,61.16
2023-01-12T03:19:42.103Z,61.38
2023-01-12T03:22:28.630Z,61.07
2023-01-12T03:25:17.686Z,60.94
2023-01-12T03:28:05.198Z,61.12
2023-01-12T03:31:02.721Z,61.28
2023-01-12T03:33:48.363Z,61.49
2023-01-12T03:36:55.805Z,61.36
2023-01-12T03:40:17.855Z,61.37
2023-01-12T03:43:06.307Z,61.77
2023-01-12T03:45:57.101Z,61.51
2023-01-12T03:48:53.375Z,61.56
2023-01-12T03:51:42.588Z,61.37
2023-01-12T03:54:29.270Z,61.51
2023-01-12T03:57:15.460Z,61.30
2023-01-12T04:00:03.195Z,61.29
2023-01-12T04:03:13.151Z,61.38
2023-01-12T04:05:59.127Z,61.45
2023-01-12T04:08:44.821Z,61.28
2023-01-12T04:11:49.258Z,61.23
2023-01-12T04:14:35.306Z,61.42
2023-01-12T04:17:25.096Z,61.30
2023-01-12T04:20:11.523Z,61.33
2023-01-12T04:22:57.487Z,61.33
2023-01-12T04:25:43.240Z,61.28
2023-01-12T04:28:29.021Z,61.27
2023-01-12T04:31:16.161Z,61.23
2023-01-12T04:34:02.138Z,61.03
2023-01-12T04:36:48.146Z,60.76
2023-01-12T04:39:33.807Z,60.58
2023-01-12T04:42:38.353Z,60.73
2023-01-12T04:45:24.268Z,61.22
2023-01-12T04:48:12.071Z,61.07
2023-01-12T04:50:59.645Z,61.23
2023-01-12T04:53:48.198Z,61.20
2023-01-12T04:56:34.053Z,61.23
2023-01-12T04:59:19.962Z,61.10
2023-01-12T05:02:05.910Z,61.08
2023-01-12T05:04:51.581Z,61.13
2023-01-12T05:07:37.387Z,61.12
2023-01-12T05:10:23.053Z,60.98
2023-01-12T05:13:08.695Z,60.90
2023-01-12T05:15:54.475Z,61.18
2023-01-12T05:18:40.494Z,60.86
2023-01-12T05:21:26.037Z,61.17
2023-01-12T05:24:11.895Z,60.68
2023-01-12T05:26:57.629Z,60.53
2023-01-12T05:29:43.271Z,60.77
2023-01-12T05:32:29.087Z,60.95
2023-01-12T05:35:14.686Z,60.93
2023-01-12T05:38:00.296Z,60.94
2023-01-12T05:40:46.047Z,60.88
2023-01-12T05:43:50.297Z,60.92
2023-01-12T05:46:40.246Z,61.10
2023-01-12T05:49:26.102Z,61.12
2023-01-12T05:52:11.756Z,60.83
2023-01-12T05:54:57.371Z,60.98
2023-01-12T05:57:43.240Z,61.19
2023-01-12T06:00:29.327Z,61.42
2023-01-12T06:03:15.415Z,61.08
2023-01-12T06:06:01.588Z,61.26
2023-01-12T06:08:47.537Z,61.09
2023-01-12T06:11:52.069Z,61.14
2023-01-12T06:14:38.293Z,61.02
2023-01-12T06:17:23.876Z,61.06
2023-01-12T06:20:10.636Z,61.08
2023-01-12T06:23:00.554Z,60.82
2023-01-12T06:25:46.573Z,61.16
2023-01-12T06:28:32.303Z,61.13
2023-01-12T06:31:17.885Z,61.01
2023-01-12T06:34:03.501Z,61.05
2023-01-12T06:36:49.492Z,61.05
2023-01-12T06:39:35.269Z,61.22
2023-01-12T06:42:30.111Z,60.92
2023-01-12T06:45:15.794Z,61.03
2023-01-12T06:48:01.549Z,60.87
2023-01-12T06:50:47.287Z,61.10
2023-01-12T06:53:33.029Z,61.09
2023-01-12T06:56:18.751Z,61.34
2023-01-12T06:59:05.692Z,61.04
2023-01-12T07:01:51.970Z,61.09
2023-01-12T07:04:38.346Z,60.92
2023-01-12T07:07:24.113Z,61.03
2023-01-12T07:10:11.324Z,60.84
2023-01-12T07:13:00.300Z,61.20
2023-01-12T07:15:46.188Z,61.28
2023-01-12T07:18:31.979Z,61.22
2023-01-12T07:21:19.615Z,61.43
2023-01-12T07:24:05.454Z,61.46
2023-01-12T07:26:52.421Z,61.49
2023-01-12T07:29:37.986Z,61.39
2023-01-12T07:32:26.587Z,61.09
2023-01-12T07:35:12.364Z,60.92
2023-01-12T07:37:58.341Z,61.39
2023-01-12T07:40:44.095Z,61.03
2023-01-12T07:43:30.563Z,61.12
2023-01-12T07:46:16.636Z,61.14
2023-01-12T07:49:02.395Z,61.09
2023-01-12T07:51:48.111Z,61.14
2023-01-12T07:54:36.099Z,61.18
2023-01-12T07:57:21.960Z,61.07
2023-01-12T08:00:09.485Z,60.97
2023-01-12T08:03:11.623Z,61.18
2023-01-12T08:05:58.027Z,61.16
2023-01-12T08:08:44.267Z,61.11
2023-01-12T08:11:31.409Z,61.24
2023-01-12T08:14:28.593Z,61.11
2023-01-12T08:17:17.925Z,61.21
2023-01-12T08:20:17.882Z,61.02
2023-01-12T08:23:10.915Z,61.18
2023-01-12T08:26:00.963Z,60.97
2023-01-12T08:29:06.736Z,61.19
2023-01-12T08:31:52.517Z,61.20
2023-01-12T08:34:41.998Z,60.90
2023-01-12T08:37:29.185Z,61.46
2023-01-12T08:40:15.410Z,61.38
2023-01-12T08:43:01.449Z,61.32
2023-01-12T08:45:47.178Z,61.01
2023-01-12T08:48:32.983Z,60.87
2023-01-12T08:51:18.601Z,61.08
2023-01-12T08:54:04.222Z,60.61
2023-01-12T08:56:50.250Z,60.83
2023-01-12T08:59:37.092Z,60.75
2023-01-12T09:02:25.265Z,60.91
2023-01-12T09:05:11.273Z,60.91
2023-01-12T09:07:56.978Z,60.69
2023-01-12T09:10:42.735Z,60.54
2023-01-12T09:13:28.472Z,60.96
2023-01-12T09:16:15.557Z,60.53
2023-01-12T09:19:01.734Z,60.57
2023-01-12T09:21:47.563Z,60.15
2023-01-12T09:24:34.208Z,60.05
2023-01-12T09:27:20.166Z,60.01
2023-01-12T09:30:07.460Z,60.35
2023-01-12T09:32:55.322Z,60.17
2023-01-12T09:35:44.466Z,60.20
2023-01-12T09:38:30.272Z,59.90
2023-01-12T09:41:49.111Z,59.93
2023-01-12T09:44:59.783Z,60.13
2023-01-12T09:47:56.290Z,59.61
2023-01-12T09:51:04.661Z,59.16
2023-01-12T09:53:50.625Z,59.35
2023-01-12T09:56:51.863Z,59.39
2023-01-12T09:59:48.773Z,59.28
2023-01-12T10:02:36.368Z,59.29
2023-01-12T10:05:46.275Z,59.56
2023-01-12T10:08:51.345Z,59.09
2023-01-12T10:12:01.059Z,59.39
2023-01-12T10:15:04.975Z,59.67
2023-01-12T10:18:09.914Z,59.46
2023-01-12T10:20:55.881Z,60.23
2023-01-12T10:23:42.611Z,59.53
2023-01-12T10:26:37.163Z,59.52
2023-01-12T10:29:24.360Z,59.32
2023-01-12T10:32:12.967Z,59.74
2023-01-12T10:34:59.974Z,59.88
2023-01-12T10:37:52.615Z,59.65
2023-01-12T10:40:38.945Z,59.96
2023-01-12T10:43:31.934Z,59.78
2023-01-12T10:46:21.418Z,60.03
2023-01-12T10:49:23.923Z,59.90
2023-01-12T10:52:11.257Z,59.57
2023-01-12T10:54:58.978Z,59.35
2023-01-12T10:57:47.748Z,59.35
2023-01-12T11:00:34.313Z,58.92
2023-01-12T11:03:38.061Z,59.00
2023-01-12T11:06:31.008Z,58.94
2023-01-12T11:09:21.765Z,58.53
2023-01-12T11:12:34.919Z,58.67
2023-01-12T11:15:21.063Z,58.80
2023-01-12T11:18:52.646Z,58.75
2023-01-12T11:21:42.243Z,58.39
2023-01-12T11:24:43.328Z,58.72
2023-01-12T11:27:36.235Z,58.91
2023-01-12T11:30:31.367Z,58.71
2023-01-12T11:33:22.818Z,58.90
2023-01-12T11:36:20.799Z,58.25
2023-01-12T11:39:13.154Z,58.56
2023-01-12T11:42:19.550Z,58.00
2023-01-12T11:45:14.190Z,58.38
2023-01-12T11:48:05.649Z,58.57
2023-01-12T11:50:53.634Z,57.98
2023-01-12T11:53:41.565Z,58.29
2023-01-12T11:56:52.045Z,57.99
2023-01-12T11:59:40.245Z,58.09
2023-01-12T12:02:55.906Z,58.71
2023-01-12T12:05:58.783Z,58.04
2023-01-12T12:09:22.750Z,58.68
2023-01-12T12:12:46.481Z,58.24
2023-01-12T12:15:34.852Z,58.35
2023-01-12T12:18:50.188Z,58.57
2023-01-12T12:21:59.283Z,58.30
2023-01-12T12:25:05.800Z,58.37
2023-01-12T12:28:10.336Z,58.08
2023-01-12T12:31:13.860Z,58.01
2023-01-12T12:34:11.753Z,57.74
2023-01-12T12:37:06.944Z,57.82
2023-01-12T12:39:57.729Z,58.09
2023-01-12T12:43:37.569Z,58.12
2023-01-12T12:46:36.048Z,58.16
2023-01-12T12:49:26.604Z,57.88
2023-01-12T12:52:12.926Z,58.00
2023-01-12T12:54:59.427Z,57.59
2023-01-12T12:58:03.618Z,58.06
2023-01-12T13:00:51.000Z,57.38
2023-01-12T13:03:39.855Z,57.91
2023-01-12T13:06:25.634Z,57.68
2023-01-12T13:09:17.288Z,58.11
2023-01-12T13:12:03.029Z,57.73
2023-01-12T13:15:32.583Z,57.57
2023-01-12T13:18:42.575Z,57.31
2023-01-12T13:21:31.144Z,57.74
2023-01-12T13:24:23.764Z,57.70
2023-01-12T13:27:47.290Z,57.08
2023-01-12T13:30:34.324Z,57.55
2023-01-12T13:33:29.074Z,57.43
2023-01-12T13:36:30.889Z,57.26
2023-01-12T13:39:17.035Z,58.01
2023-01-12T13:42:22.485Z,57.72
2023-01-12T13:45:17.281Z,57.53
2023-01-12T13:48:05.824Z,58.05
2023-01-12T13:50:55.667Z,57.98
2023-01-12T13:53:41.785Z,58.09
2023-01-12T13:56:28.002Z,58.41
2023-01-12T13:59:18.747Z,58.14
2023-01-12T14:02:04.849Z,57.74
2023-01-12T14:04:59.690Z,57.34
2023-01-12T14:08:00.269Z,57.56
2023-01-12T14:10:58.273Z,58.12
2023-01-12T14:13:53.162Z,58.42
2023-01-12T14:17:04.955Z,58.09
2023-01-12T14:19:51.771Z,57.95
2023-01-12T14:22:37.626Z,58.19
2023-01-12T14:25:25.961Z,58.19
2023-01-12T14:28:20.485Z,57.96
2023-01-12T14:31:08.606Z,57.67
2023-01-12T14:33:57.340Z,57.57
2023-01-12T14:36:44.803Z,57.95
2023-01-12T14:39:36.758Z,57.74
2023-01-12T14:42:42.351Z,57.89
2023-01-12T14:45:47.580Z,57.74
2023-01-12T14:48:34.602Z,58.14
2023-01-12T14:51:40.221Z,57.73
2023-01-12T14:54:28.536Z,58.07
2023-01-12T14:57:23.580Z,57.67
2023-01-12T15:00:21.517Z,58.13
2023-01-12T15:03:26.328Z,58.29
2023-01-12T15:06:15.805Z,58.35
2023-01-12T15:09:02.042Z,58.72
2023-01-12T15:11:47.754Z,58.58
2023-01-12T15:14:33.600Z,58.41
2023-01-12T15:17:38.069Z,58.58
2023-01-12T15:20:43.564Z,58.23
2023-01-12T15:23:53.118Z,58.76
2023-01-12T15:27:29.368Z,57.78
2023-01-12T15:35:26.793Z,58.47
2023-01-12T15:43:18.789Z,58.21
2023-01-12T15:47:16.521Z,58.27
2023-01-12T15:50:02.685Z,57.91
2023-01-12T15:52:49.241Z,58.28
2023-01-12T15:55:36.184Z,58.29
2023-01-12T15:58:22.458Z,58.87
2023-01-12T16:01:10.716Z,58.50
2023-01-12T16:04:25.020Z,58.58
2023-01-12T16:07:11.991Z,58.55
2023-01-12T16:11:13.554Z,58.33
2023-01-12T16:14:08.558Z,58.03
2023-01-12T16:16:54.728Z,58.56
2023-01-12T16:19:43.903Z,58.50
2023-01-12T16:22:30.671Z,58.19
2023-01-12T16:25:16.810Z,58.77
2023-01-12T16:28:02.939Z,57.84
2023-01-12T16:30:48.735Z,58.17
2023-01-12T16:33:34.462Z,58.00
2023-01-12T16:36:20.042Z,57.71
2023-01-12T16:39:06.556Z,58.30
2023-01-12T16:41:54.741Z,58.50
2023-01-12T16:44:41.099Z,58.24
2023-01-12T16:47:27.175Z,58.02
2023-01-12T16:50:13.206Z,57.91
2023-01-12T16:52:58.688Z,58.05
2023-01-12T16:55:44.543Z,58.21
2023-01-12T16:58:30.175Z,58.45
2023-01-12T17:01:18.801Z,58.36
2023-01-12T17:04:04.876Z,58.42
2023-01-12T17:06:51.432Z,58.41
2023-01-12T17:09:39.308Z,58.26
2023-01-12T17:12:25.265Z,58.50
2023-01-12T17:15:11.417Z,58.32
2023-01-12T17:17:57.719Z,57.99
2023-01-12T17:20:44.187Z,58.07
2023-01-12T17:23:30.295Z,57.95
2023-01-12T17:26:18.243Z,58.65
2023-01-12T17:29:04.418Z,58.62
2023-01-12T17:31:50.222Z,58.02
2023-01-12T17:34:39.021Z,58.45
2023-01-12T17:37:25.098Z,57.74
2023-01-12T17:40:11.683Z,57.84
2023-01-12T17:43:03.456Z,57.49
2023-01-12T17:45:50.764Z,58.10
2023-01-12T17:48:36.799Z,57.78
2023-01-12T17:51:22.450Z,57.97
2023-01-12T17:54:10.916Z,57.91
2023-01-12T17:56:57.155Z,58.25
2023-01-12T17:59:43.411Z,57.78
2023-01-12T18:02:29.439Z,57.90
2023-01-12T18:05:15.340Z,57.93
2023-01-12T18:08:01.136Z,58.03
2023-01-12T18:10:47.111Z,58.17
2023-01-12T18:13:34.585Z,58.34
2023-01-12T18:16:21.087Z,57.98
2023-01-12T18:19:08.966Z,57.93
2023-01-12T18:21:55.078Z,57.57
2023-01-12T18:24:41.153Z,58.27
2023-01-12T18:27:27.232Z,58.21
2023-01-12T18:30:13.820Z,58.07
2023-01-12T18:33:00.091Z,58.24
2023-01-12T18:35:46.329Z,57.97
2023-01-12T18:38:32.210Z,58.22
2023-01-12T18:41:38.035Z,58.36
2023-01-12T18:44:24.907Z,58.33
2023-01-12T18:47:34.818Z,58.07
2023-01-12T18:50:40.296Z,58.62
2023-01-12T18:53:31.873Z,58.29
2023-01-12T18:56:17.948Z,58.49
2023-01-12T18:59:04.492Z,58.42
2023-01-12T19:01:50.845Z,58.36
2023-01-12T19:04:57.911Z,58.46
2023-01-12T19:07:52.945Z,58.35
2023-01-12T19:10:39.042Z,58.90
2023-01-12T19:13:43.323Z,58.66
2023-01-12T19:16:50.051Z,58.54
2023-01-12T19:19:36.255Z,58.00
2023-01-12T19:22:40.979Z,58.52
2023-01-12T19:25:47.146Z,58.64
2023-01-12T19:28:35.503Z,58.26
2023-01-12T19:31:21.515Z,58.51
2023-01-12T19:34:07.130Z,58.56
2023-01-12T19:36:53.085Z,58.25
2023-01-12T19:40:14.111Z,58.37
2023-01-12T19:43:33.683Z,58.34
2023-01-12T19:46:19.623Z,58.70
2023-01-12T19:49:05.485Z,58.90
2023-01-12T19:51:51.250Z,58.73
2023-01-12T19:54:37.183Z,58.48
2023-01-12T19:57:22.879Z,58.65
2023-01-12T20:00:14.336Z,58.60
2023-01-12T20:03:00.519Z,58.62
2023-01-12T20:05:48.023Z,58.77
2023-01-12T20:08:34.235Z,58.41
2023-01-12T20:11:20.097Z,58.76
2023-01-12T20:14:06.149Z,58.96
2023-01-12T20:16:51.899Z,58.70
2023-01-12T20:19:37.814Z,58.59
2023-01-12T20:22:23.655Z,58.59
2023-01-12T20:25:10.374Z,58.96
2023-01-12T20:27:56.149Z,58.55
2023-01-12T20:30:43.303Z,58.82
2023-01-12T20:33:29.807Z,59.05
2023-01-12T20:36:17.336Z,58.76
2023-01-12T20:39:03.665Z,59.20
2023-01-12T20:41:49.653Z,58.63
2023-01-12T20:44:35.642Z,58.92
2023-01-12T20:47:21.795Z,58.96
2023-01-12T20:50:11.981Z,59.18
2023-01-12T20:52:59.778Z,58.71
2023-01-12T20:55:48.630Z,59.06
2023-01-12T20:58:34.500Z,58.74
2023-01-12T21:01:20.895Z,58.94
2023-01-12T21:04:06.790Z,59.29
2023-01-12T21:06:52.711Z,59.29
2023-01-12T21:09:38.841Z,59.22
2023-01-12T21:12:27.271Z,58.90
2023-01-12T21:15:13.623Z,58.80
2023-01-12T21:17:59.673Z,59.23
2023-01-12T21:20:45.324Z,59.05
2023-01-12T21:23:31.184Z,59.19
2023-01-12T21:26:17.245Z,59.10
2023-01-12T21:29:03.370Z,59.02
2023-01-12T21:31:49.480Z,58.98
2023-01-12T21:34:35.265Z,59.05
2023-01-12T21:37:21.428Z,58.87
2023-01-12T21:40:08.518Z,59.26
2023-01-12T21:43:11.965Z,59.55
2023-01-12T21:46:04.385Z,59.42
2023-01-12T21:48:50.189Z,59.39
2023-01-12T21:51:35.952Z,59.12
2023-01-12T21:54:21.743Z,59.54
2023-01-12T21:57:07.645Z,59.38
2023-01-12T21:59:53.999Z,59.74
2023-01-12T22:02:40.232Z,59.09
2023-01-12T22:05:26.112Z,59.13
2023-01-12T22:08:12.039Z,59.10
2023-01-12T22:11:04.807Z,59.38
2023-01-12T22:13:50.743Z,59.65
2023-01-12T22:16:36.546Z,59.59
2023-01-12T22:19:22.181Z,59.38
2023-01-12T22:22:07.947Z,59.36
2023-01-12T22:24:53.586Z,59.72
2023-01-12T22:27:41.670Z,59.45
2023-01-12T22:30:28.002Z,59.37
2023-01-12T22:33:13.748Z,59.56
2023-01-12T22:36:02.029Z,59.60
2023-01-12T22:38:48.102Z,59.44
2023-01-12T22:41:34.374Z,59.51
2023-01-12T22:44:20.176Z,59.12
2023-01-12T22:47:05.793Z,59.67
2023-01-12T22:49:51.607Z,59.72
2023-01-12T22:52:39.250Z,59.84
2023-01-12T22:55:25.613Z,59.44
2023-01-12T22:58:11.665Z,59.54
2023-01-12T23:01:08.892Z,59.37
2023-01-12T23:03:58.537Z,59.53
2023-01-12T23:06:44.231Z,59.31
2023-01-12T23:09:29.949Z,59.50
2023-01-12T23:12:15.711Z,59.68
2023-01-12T23:15:01.205Z,59.16
2023-01-12T23:17:47.001Z,59.89
2023-01-12T23:20:35.719Z,59.45
2023-01-12T23:23:21.325Z,59.84
2023-01-12T23:26:09.016Z,59.69
2023-01-12T23:28:56.876Z,59.52
2023-01-12T23:31:42.382Z,59.70
2023-01-12T23:34:28.965Z,59.72
2023-01-12T23:37:15.000Z,59.29
2023-01-12T23:40:00.772Z,59.66
2023-01-12T23:42:46.362Z,59.45
2023-01-12T23:45:33.396Z,59.86
2023-01-12T23:48:19.121Z,59.68
2023-01-12T23:51:05.222Z,59.59
2023-01-12T23:53:59.804Z,60.13
2023-01-12T23:56:46.181Z,59.78
2023-01-12T23:59:31.869Z,59.96
